23  °F
Temperature
18  °F
  Dewpoint
   Humidity
Temp | Dewpoint | Humidity
5  km/h
Wind Speed
3  mph
Wind Speed
3  kts
Wind Speed
110°
East South
East

Wind Speed
Clear
Conditions
Pressure 1027.9 (hPa) - 30.33 (in)
Visibility 10.0 (mi) - 16.1 (km)

Current Conditions
KAVP
Location 6km (3.2mi)
Metar :KAVP 190854Z 11003KT 10SM CLR M05/M08 A3033 RMK AO2 SLP279 T10501083 55003
Tue 19th March 03:54 am

Airport
  Metar Aviation API Data Provided by https://www.checkwx.com/ CSS/SVG/PHP scripts by weather34.com © 2015-2019